Terminal Aerodrome Forecast
Issued by NWS El Paso, TX

Home | Current Version | Previous Version | Text Only | Print | Product List | Glossary On
Versions: 1 2 3 4 5 6 7 8 9 10 11 12
000
FTUS44 KEPZ 251100
TAFELP
TAF
KELP 251120Z 2512/2612 27010KT P6SM SCT250
     FM251800 26017G27KT P6SM SCT100
     FM260300 29010KT P6SM SCT250=

USA.gov is the U.S. government's official web portal to all federal, state and local government web resources and services.